Terminal Aerodrome Forecast
Issued by NWS Burlington, VT

Home | Current Version | Previous Version | Text Only | Print | Product List | Glossary On
Versions: 1 2 3 4 5 6 7 8 9 10 11 12 13 14 15 16 17 18 19 20 21
000
FTUS41 KBTV 301724
TAFBTV
TAF
KBTV 301724Z 3018/3118 35008KT P6SM FEW200
     FM302300 01005KT P6SM BKN200
     FM310700 08004KT P6SM BKN150
     FM311000 13005KT P6SM VCSH OVC090
     FM311500 15007KT 4SM -RASN BR OVC035=

USA.gov is the U.S. government's official web portal to all federal, state and local government web resources and services.